RKPC/CJU METAR and TAF weather

Enter ICAO airport designator
Station Type Date Time Source
RKPC METAR 2019/05/19 21:00 UTC NOAA

RKPC 192100Z 28008KT 6000 -DZ FEW003 BKN025 OVC080 17/16 Q1007 NOSIG


Station Type Date Time Source
RKPC Decoded METAR 2019/05/19 21:00 UTC NOAA

Cheju International Airport, Korea, South (RKPC) 33-30N 126-30E 28M
May 19, 2019 - 05:00 PM EDT / 2019.05.19 2100 UTC
Wind: from the W (280 degrees) at 9 MPH (8 KT):0
Visibility: 3 mile(s):0
Sky conditions: overcast
Weather: light drizzle
Temperature: 62 F (17 C)
Dew Point: 60 F (16 C)
Relative Humidity: 93%
Pressure (altimeter): 29.74 in. Hg (1007 hPa)
ob: RKPC 192100Z 28008KT 6000 -DZ FEW003 BKN025 OVC080 17/16 Q1007 NOSIG
cycle: 21

Station Type Date Time Source
RKPC TAF 2019/05/19 18:27 UTC NOAA

TAF
AMD TAF
AMD RKPC 191725Z 1918/2024 26010KT 7000 FEW010 BKN030 OVC100 TN17/1921Z TX19/2003Z TN13/2021Z
TEMPO 1918/1922 -RA
BECMG 2003/2004 32010KT CAVOK
BECMG 2013/2014 20008KT

Example: see airport list